sensor_id;sensor_type;location;lat;lon;timestamp;pressure;altitude;pressure_sealevel;temperature;humidity
70323;BME280;57735;56.264;43.898;2023-01-25T00:01:04;102201.25;;;-4.76;73.38
70323;BME280;57735;56.264;43.898;2023-01-25T00:03:35;102194.31;;;-4.77;73.65
70323;BME280;57735;56.264;43.898;2023-01-25T00:06:09;102184.75;;;-4.73;73.40
70323;BME280;57735;56.264;43.898;2023-01-25T00:08:39;102189.97;;;-4.75;73.38
70323;BME280;57735;56.264;43.898;2023-01-25T00:11:10;102181.31;;;-4.78;73.21
70323;BME280;57735;56.264;43.898;2023-01-25T00:13:41;102179.56;;;-4.75;73.76
70323;BME280;57735;56.264;43.898;2023-01-25T00:16:12;102193.44;;;-4.74;73.50
70323;BME280;57735;56.264;43.898;2023-01-25T00:18:45;102186.53;;;-4.80;73.80
70323;BME280;57735;56.264;43.898;2023-01-25T00:21:18;102183.94;;;-4.80;73.95
70323;BME280;57735;56.264;43.898;2023-01-25T00:23:50;102183.88;;;-4.74;73.81
70323;BME280;57735;56.264;43.898;2023-01-25T00:26:21;102180.41;;;-4.70;73.56
70323;BME280;57735;56.264;43.898;2023-01-25T00:28:53;102176.88;;;-4.69;73.55
70323;BME280;57735;56.264;43.898;2023-01-25T00:37:29;102189.88;;;-4.66;73.21
70323;BME280;57735;56.264;43.898;2023-01-25T00:40:00;102184.69;;;-4.67;73.66
70323;BME280;57735;56.264;43.898;2023-01-25T00:42:31;102181.19;;;-4.62;73.70
70323;BME280;57735;56.264;43.898;2023-01-25T00:45:01;102186.34;;;-4.59;73.56
70323;BME280;57735;56.264;43.898;2023-01-25T00:47:35;102180.28;;;-4.58;73.64
70323;BME280;57735;56.264;43.898;2023-01-25T00:50:12;102163.78;;;-4.57;73.50
70323;BME280;57735;56.264;43.898;2023-01-25T00:52:42;102188.06;;;-4.54;73.62
70323;BME280;57735;56.264;43.898;2023-01-25T00:55:13;102185.38;;;-4.48;73.54
70323;BME280;57735;56.264;43.898;2023-01-25T00:57:44;102188.00;;;-4.51;73.29
70323;BME280;57735;56.264;43.898;2023-01-25T01:00:15;102189.72;;;-4.49;73.26
70323;BME280;57735;56.264;43.898;2023-01-25T01:02:49;102172.38;;;-4.48;73.67
70323;BME280;57735;56.264;43.898;2023-01-25T01:05:20;102169.78;;;-4.48;73.74
70323;BME280;57735;56.264;43.898;2023-01-25T01:07:51;102169.75;;;-4.47;73.89
70323;BME280;57735;56.264;43.898;2023-01-25T01:10:21;102177.53;;;-4.42;73.35
70323;BME280;57735;56.264;43.898;2023-01-25T01:12:52;102177.50;;;-4.39;73.20
70323;BME280;57735;56.264;43.898;2023-01-25T01:15:23;102169.69;;;-4.38;73.56
70323;BME280;57735;56.264;43.898;2023-01-25T01:17:54;102169.72;;;-4.41;73.39
70323;BME280;57735;56.264;43.898;2023-01-25T01:20:28;102168.84;;;-4.41;73.77
70323;BME280;57735;56.264;43.898;2023-01-25T01:22:59;102171.47;;;-4.44;73.48
70323;BME280;57735;56.264;43.898;2023-01-25T01:25:30;102165.41;;;-4.43;73.77
70323;BME280;57735;56.264;43.898;2023-01-25T01:28:00;102163.63;;;-4.38;73.66
70323;BME280;57735;56.264;43.898;2023-01-25T01:30:31;102173.09;;;-4.33;73.74
70323;BME280;57735;56.264;43.898;2023-01-25T01:33:02;102162.69;;;-4.33;73.27
70323;BME280;57735;56.264;43.898;2023-01-25T01:35:33;102168.75;;;-4.35;73.40
70323;BME280;57735;56.264;43.898;2023-01-25T01:38:04;102166.22;;;-4.37;73.36
70323;BME280;57735;56.264;43.898;2023-01-25T01:40:34;102168.81;;;-4.37;73.59
70323;BME280;57735;56.264;43.898;2023-01-25T01:43:16;102165.38;;;-4.40;73.83
70323;BME280;57735;56.264;43.898;2023-01-25T01:45:55;102151.50;;;-4.42;74.04
70323;BME280;57735;56.264;43.898;2023-01-25T01:48:41;102151.50;;;-4.41;73.90
70323;BME280;57735;56.264;43.898;2023-01-25T01:51:46;102156.69;;;-4.41;74.18
70323;BME280;57735;56.264;43.898;2023-01-25T01:54:56;102155.84;;;-4.41;73.70
70323;BME280;57735;56.264;43.898;2023-01-25T01:57:35;102147.16;;;-4.42;74.10
70323;BME280;57735;56.264;43.898;2023-01-25T02:00:10;102151.50;;;-4.42;74.16
70323;BME280;57735;56.264;43.898;2023-01-25T02:02:47;102156.69;;;-4.38;74.25
70323;BME280;57735;56.264;43.898;2023-01-25T02:05:25;102161.91;;;-4.39;74.16
70323;BME280;57735;56.264;43.898;2023-01-25T02:07:57;102152.31;;;-4.36;74.35
70323;BME280;57735;56.264;43.898;2023-01-25T02:10:29;102158.41;;;-4.37;74.09
70323;BME280;57735;56.264;43.898;2023-01-25T02:13:00;102171.38;;;-4.35;74.19
70323;BME280;57735;56.264;43.898;2023-01-25T02:15:40;102160.09;;;-4.34;74.02
70323;BME280;57735;56.264;43.898;2023-01-25T02:18:12;102158.34;;;-4.32;74.42
70323;BME280;57735;56.264;43.898;2023-01-25T02:20:48;102153.09;;;-4.29;73.75
70323;BME280;57735;56.264;43.898;2023-01-25T02:26:10;102141.00;;;-4.33;73.95
70323;BME280;57735;56.264;43.898;2023-01-25T02:29:01;102138.38;;;-4.33;73.99
70323;BME280;57735;56.264;43.898;2023-01-25T02:31:33;102143.59;;;-4.33;74.05
70323;BME280;57735;56.264;43.898;2023-01-25T02:34:03;102146.16;;;-4.30;74.12
70323;BME280;57735;56.264;43.898;2023-01-25T02:36:37;102145.25;;;-4.25;74.23
70323;BME280;57735;56.264;43.898;2023-01-25T02:39:15;102151.28;;;-4.21;73.76
70323;BME280;57735;56.264;43.898;2023-01-25T02:41:47;102153.84;;;-4.18;73.81
70323;BME280;57735;56.264;43.898;2023-01-25T02:44:26;102150.34;;;-4.15;73.99
70323;BME280;57735;56.264;43.898;2023-01-25T02:46:58;102133.91;;;-4.19;73.53
70323;BME280;57735;56.264;43.898;2023-01-25T02:49:29;102146.03;;;-4.18;74.01
70323;BME280;57735;56.264;43.898;2023-01-25T02:52:00;102142.53;;;-4.17;73.68
70323;BME280;57735;56.264;43.898;2023-01-25T02:54:30;102149.47;;;-4.14;73.91
70323;BME280;57735;56.264;43.898;2023-01-25T02:57:01;102146.84;;;-4.14;73.68
70323;BME280;57735;56.264;43.898;2023-01-25T02:59:32;102140.78;;;-4.15;73.61
70323;BME280;57735;56.264;43.898;2023-01-25T03:02:02;102139.06;;;-4.16;73.62
70323;BME280;57735;56.264;43.898;2023-01-25T03:04:33;102141.66;;;-4.16;73.63
70323;BME280;57735;56.264;43.898;2023-01-25T03:07:04;102137.34;;;-4.17;73.88
70323;BME280;57735;56.264;43.898;2023-01-25T03:09:38;102129.50;;;-4.14;73.63
70323;BME280;57735;56.264;43.898;2023-01-25T03:12:08;102127.78;;;-4.15;73.52
70323;BME280;57735;56.264;43.898;2023-01-25T03:14:39;102122.56;;;-4.13;73.86
70323;BME280;57735;56.264;43.898;2023-01-25T03:17:10;102132.94;;;-4.10;73.94
70323;BME280;57735;56.264;43.898;2023-01-25T03:19:40;102130.28;;;-4.04;73.75
70323;BME280;57735;56.264;43.898;2023-01-25T03:22:11;102132.81;;;-4.01;73.66
70323;BME280;57735;56.264;43.898;2023-01-25T03:24:42;102130.28;;;-4.04;73.25
70323;BME280;57735;56.264;43.898;2023-01-25T03:27:13;102135.47;;;-4.04;73.35
70323;BME280;57735;56.264;43.898;2023-01-25T03:29:44;102147.66;;;-4.08;73.37
70323;BME280;57735;56.264;43.898;2023-01-25T03:32:15;102147.69;;;-4.11;73.52
70323;BME280;57735;56.264;43.898;2023-01-25T03:34:46;102144.25;;;-4.14;73.92
70323;BME280;57735;56.264;43.898;2023-01-25T03:37:16;102148.59;;;-4.15;73.72
70323;BME280;57735;56.264;43.898;2023-01-25T03:39:47;102139.94;;;-4.18;73.68
70323;BME280;57735;56.264;43.898;2023-01-25T03:42:19;102131.34;;;-4.24;73.82
70323;BME280;57735;56.264;43.898;2023-01-25T03:44:50;102134.88;;;-4.28;74.17
70323;BME280;57735;56.264;43.898;2023-01-25T03:47:21;102126.19;;;-4.27;74.58
70323;BME280;57735;56.264;43.898;2023-01-25T03:49:52;102124.41;;;-4.22;74.28
70323;BME280;57735;56.264;43.898;2023-01-25T03:52:46;102129.50;;;-4.14;74.21
70323;BME280;57735;56.264;43.898;2023-01-25T03:55:35;102132.06;;;-4.11;74.17
70323;BME280;57735;56.264;43.898;2023-01-25T03:58:08;102139.00;;;-4.10;73.92
70323;BME280;57735;56.264;43.898;2023-01-25T04:00:41;102140.72;;;-4.09;73.99
70323;BME280;57735;56.264;43.898;2023-01-25T04:03:12;102129.47;;;-4.12;73.72
70323;BME280;57735;56.264;43.898;2023-01-25T04:05:43;102116.50;;;-4.17;74.28
70323;BME280;57735;56.264;43.898;2023-01-25T04:08:14;102121.78;;;-4.20;74.19
70323;BME280;57735;56.264;43.898;2023-01-25T04:11:10;102127.88;;;-4.23;74.24
70323;BME280;57735;56.264;43.898;2023-01-25T04:13:40;102139.16;;;-4.22;74.72
70323;BME280;57735;56.264;43.898;2023-01-25T04:16:10;102146.09;;;-4.21;74.29
70323;BME280;57735;56.264;43.898;2023-01-25T04:18:41;102146.97;;;-4.24;74.79
70323;BME280;57735;56.264;43.898;2023-01-25T04:21:12;102144.38;;;-4.24;74.83
70323;BME280;57735;56.264;43.898;2023-01-25T04:23:43;102143.47;;;-4.19;74.77
70323;BME280;57735;56.264;43.898;2023-01-25T04:26:14;102141.66;;;-4.14;74.47
70323;BME280;57735;56.264;43.898;2023-01-25T04:28:48;102132.94;;;-4.12;74.46
70323;BME280;57735;56.264;43.898;2023-01-25T04:31:19;102126.88;;;-4.11;74.48
70323;BME280;57735;56.264;43.898;2023-01-25T04:33:50;102119.88;;;-4.07;74.28
70323;BME280;57735;56.264;43.898;2023-01-25T04:36:21;102143.22;;;-4.00;74.46
70323;BME280;57735;56.264;43.898;2023-01-25T04:38:51;102143.19;;;-3.98;74.03
70323;BME280;57735;56.264;43.898;2023-01-25T04:41:22;102143.19;;;-3.97;74.10
70323;BME280;57735;56.264;43.898;2023-01-25T04:43:56;102155.31;;;-3.96;74.27
70323;BME280;57735;56.264;43.898;2023-01-25T04:46:27;102153.59;;;-3.95;73.97
70323;BME280;57735;56.264;43.898;2023-01-25T04:48:57;102138.81;;;-3.95;74.29
70323;BME280;57735;56.264;43.898;2023-01-25T04:51:28;102126.66;;;-3.93;74.26
70323;BME280;57735;56.264;43.898;2023-01-25T04:53:59;102136.19;;;-3.92;73.83
70323;BME280;57735;56.264;43.898;2023-01-25T04:56:30;102141.38;;;-3.90;74.21
70323;BME280;57735;56.264;43.898;2023-01-25T04:59:00;102139.59;;;-3.87;74.21
70323;BME280;57735;56.264;43.898;2023-01-25T05:01:31;102134.41;;;-3.87;73.73
70323;BME280;57735;56.264;43.898;2023-01-25T05:04:04;102124.84;;;-3.88;73.93
70323;BME280;57735;56.264;43.898;2023-01-25T05:06:35;102124.03;;;-3.93;73.75
70323;BME280;57735;56.264;43.898;2023-01-25T05:09:06;102137.06;;;-3.93;74.11
70323;BME280;57735;56.264;43.898;2023-01-25T05:11:37;102139.66;;;-3.91;73.88
70323;BME280;57735;56.264;43.898;2023-01-25T05:14:08;102130.97;;;-3.92;73.67
70323;BME280;57735;56.264;43.898;2023-01-25T05:16:38;102126.59;;;-3.87;74.21
70323;BME280;57735;56.264;43.898;2023-01-25T05:19:09;102131.75;;;-3.85;73.76
70323;BME280;57735;56.264;43.898;2023-01-25T05:21:40;102138.72;;;-3.85;73.91
70323;BME280;57735;56.264;43.898;2023-01-25T05:24:31;102143.88;;;-3.82;73.68
70323;BME280;57735;56.264;43.898;2023-01-25T05:27:02;102145.59;;;-3.81;73.71
70323;BME280;57735;56.264;43.898;2023-01-25T05:29:36;102140.34;;;-3.78;73.50
70323;BME280;57735;56.264;43.898;2023-01-25T05:32:09;102151.66;;;-3.81;73.18
70323;BME280;57735;56.264;43.898;2023-01-25T05:34:40;102145.59;;;-3.81;73.39
70323;BME280;57735;56.264;43.898;2023-01-25T05:37:13;102154.31;;;-3.84;73.60
70323;BME280;57735;56.264;43.898;2023-01-25T05:39:45;102161.31;;;-3.88;73.34
70323;BME280;57735;56.264;43.898;2023-01-25T05:42:17;102168.28;;;-3.90;73.39
70323;BME280;57735;56.264;43.898;2023-01-25T05:44:50;102163.06;;;-3.87;73.40
70323;BME280;57735;56.264;43.898;2023-01-25T05:47:21;102156.03;;;-3.81;73.68
70323;BME280;57735;56.264;43.898;2023-01-25T05:49:52;102158.63;;;-3.81;73.48
70323;BME280;57735;56.264;43.898;2023-01-25T05:52:23;102154.34;;;-3.85;73.27
70323;BME280;57735;56.264;43.898;2023-01-25T05:54:53;102157.06;;;-3.95;73.56
70323;BME280;57735;56.264;43.898;2023-01-25T05:57:24;102177.88;;;-3.92;74.03
70323;BME280;57735;56.264;43.898;2023-01-25T05:59:55;102168.31;;;-3.93;73.78
70323;BME280;57735;56.264;43.898;2023-01-25T06:02:26;102159.63;;;-3.92;73.63
70323;BME280;57735;56.264;43.898;2023-01-25T06:04:59;102156.16;;;-3.91;73.55
70323;BME280;57735;56.264;43.898;2023-01-25T06:07:34;102152.63;;;-3.87;73.69
70323;BME280;57735;56.264;43.898;2023-01-25T06:10:09;102147.31;;;-3.80;73.82
70323;BME280;57735;56.264;43.898;2023-01-25T06:12:39;102155.03;;;-3.71;73.59
70323;BME280;57735;56.264;43.898;2023-01-25T06:15:10;102156.81;;;-3.73;73.25
70323;BME280;57735;56.264;43.898;2023-01-25T06:17:41;102163.75;;;-3.74;73.37
70323;BME280;57735;56.264;43.898;2023-01-25T06:20:12;102167.22;;;-3.73;73.09
70323;BME280;57735;56.264;43.898;2023-01-25T06:22:48;102167.22;;;-3.72;73.13
70323;BME280;57735;56.264;43.898;2023-01-25T06:25:19;102175.88;;;-3.71;73.26
70323;BME280;57735;56.264;43.898;2023-01-25T06:27:50;102178.44;;;-3.68;73.08
70323;BME280;57735;56.264;43.898;2023-01-25T06:30:20;102169.69;;;-3.64;72.81
70323;BME280;57735;56.264;43.898;2023-01-25T06:32:51;102172.25;;;-3.60;72.65
70323;BME280;57735;56.264;43.898;2023-01-25T06:35:22;102178.34;;;-3.61;72.69
70323;BME280;57735;56.264;43.898;2023-01-25T06:37:56;102174.88;;;-3.61;72.85
70323;BME280;57735;56.264;43.898;2023-01-25T06:40:28;102187.03;;;-3.60;72.47
70323;BME280;57735;56.264;43.898;2023-01-25T06:43:08;102177.44;;;-3.57;72.42
70323;BME280;57735;56.264;43.898;2023-01-25T06:45:39;102175.59;;;-3.50;72.49
70323;BME280;57735;56.264;43.898;2023-01-25T06:48:10;102161.59;;;-3.43;72.38
70323;BME280;57735;56.264;43.898;2023-01-25T06:50:41;102164.13;;;-3.35;72.04
70323;BME280;57735;56.264;43.898;2023-01-25T06:53:12;102171.00;;;-3.33;72.08
70323;BME280;57735;56.264;43.898;2023-01-25T06:55:42;102168.31;;;-3.27;71.89
70323;BME280;57735;56.264;43.898;2023-01-25T06:58:13;102164.84;;;-3.27;71.77
70323;BME280;57735;56.264;43.898;2023-01-25T07:00:44;102164.00;;;-3.29;71.54
70323;BME280;57735;56.264;43.898;2023-01-25T07:03:15;102158.81;;;-3.32;71.73
70323;BME280;57735;56.264;43.898;2023-01-25T07:05:49;102163.25;;;-3.36;72.07
70323;BME280;57735;56.264;43.898;2023-01-25T07:08:21;102168.47;;;-3.36;71.79
70323;BME280;57735;56.264;43.898;2023-01-25T07:10:53;102152.72;;;-3.31;71.82
70323;BME280;57735;56.264;43.898;2023-01-25T07:13:25;102155.31;;;-3.30;71.60
70323;BME280;57735;56.264;43.898;2023-01-25T07:16:01;102157.09;;;-3.33;71.72
70323;BME280;57735;56.264;43.898;2023-01-25T07:18:33;102162.31;;;-3.32;71.94
70323;BME280;57735;56.264;43.898;2023-01-25T07:21:10;102158.78;;;-3.29;71.86
70323;BME280;57735;56.264;43.898;2023-01-25T07:23:42;102165.72;;;-3.28;71.51
70323;BME280;57735;56.264;43.898;2023-01-25T07:26:21;102156.13;;;-3.25;71.58
70323;BME280;57735;56.264;43.898;2023-01-25T07:28:52;102155.25;;;-3.25;71.87
70323;BME280;57735;56.264;43.898;2023-01-25T07:31:23;102150.88;;;-3.23;71.28
70323;BME280;57735;56.264;43.898;2023-01-25T07:33:56;102155.19;;;-3.19;71.47
70323;BME280;57735;56.264;43.898;2023-01-25T07:36:27;102128.09;;;-3.10;71.54
70323;BME280;57735;56.264;43.898;2023-01-25T07:38:58;102139.41;;;-3.11;70.99
70323;BME280;57735;56.264;43.898;2023-01-25T07:41:29;102150.66;;;-3.08;71.03
70323;BME280;57735;56.264;43.898;2023-01-25T07:43:59;102138.41;;;-3.03;71.20
70323;BME280;57735;56.264;43.898;2023-01-25T07:46:30;102138.25;;;-2.94;70.79
70323;BME280;57735;56.264;43.898;2023-01-25T07:49:01;102135.56;;;-2.88;70.60
70323;BME280;57735;56.264;43.898;2023-01-25T07:51:32;102130.31;;;-2.86;70.65
70323;BME280;57735;56.264;43.898;2023-01-25T07:54:05;102136.41;;;-2.87;70.55
70323;BME280;57735;56.264;43.898;2023-01-25T07:56:36;102146.66;;;-2.76;70.62
70323;BME280;57735;56.264;43.898;2023-01-25T07:59:09;102143.09;;;-2.71;70.18
70323;BME280;57735;56.264;43.898;2023-01-25T08:01:40;102138.63;;;-2.66;70.18
70323;BME280;57735;56.264;43.898;2023-01-25T08:04:11;102141.09;;;-2.57;69.80
70323;BME280;57735;56.264;43.898;2023-01-25T08:06:42;102147.16;;;-2.55;69.77
70323;BME280;57735;56.264;43.898;2023-01-25T08:09:17;102137.44;;;-2.48;69.88
70323;BME280;57735;56.264;43.898;2023-01-25T08:11:53;102140.00;;;-2.43;69.10
70323;BME280;57735;56.264;43.898;2023-01-25T08:14:24;102139.16;;;-2.46;69.16
70323;BME280;57735;56.264;43.898;2023-01-25T08:16:55;102132.94;;;-2.38;69.45
70323;BME280;57735;56.264;43.898;2023-01-25T08:19:25;102126.69;;;-2.30;68.88
70323;BME280;57735;56.264;43.898;2023-01-25T08:21:58;102130.00;;;-2.20;68.90
70323;BME280;57735;56.264;43.898;2023-01-25T08:24:29;102125.63;;;-2.20;68.71
70323;BME280;57735;56.264;43.898;2023-01-25T08:27:00;102117.44;;;-2.03;68.94
70323;BME280;57735;56.264;43.898;2023-01-25T08:29:31;102122.44;;;-1.92;68.40
70323;BME280;57735;56.264;43.898;2023-01-25T08:32:01;102123.19;;;-1.86;68.21
70323;BME280;57735;56.264;43.898;2023-01-25T08:34:35;102105.66;;;-1.82;67.97
70323;BME280;57735;56.264;43.898;2023-01-25T08:37:06;102097.84;;;-1.82;67.82
70323;BME280;57735;56.264;43.898;2023-01-25T08:39:40;102103.91;;;-1.82;67.70
70323;BME280;57735;56.264;43.898;2023-01-25T08:42:11;102097.84;;;-1.82;67.71
70323;BME280;57735;56.264;43.898;2023-01-25T08:44:41;102103.81;;;-1.76;67.84
70323;BME280;57735;56.264;43.898;2023-01-25T08:47:13;102103.75;;;-1.72;67.55
70323;BME280;57735;56.264;43.898;2023-01-25T08:49:44;102098.47;;;-1.71;67.66
70323;BME280;57735;56.264;43.898;2023-01-25T08:52:14;102098.50;;;-1.72;67.40
70323;BME280;57735;56.264;43.898;2023-01-25T08:54:45;102087.19;;;-1.73;67.46
70323;BME280;57735;56.264;43.898;2023-01-25T08:57:17;102084.44;;;-1.67;67.60
70323;BME280;57735;56.264;43.898;2023-01-25T08:59:50;102095.69;;;-1.63;67.21
70323;BME280;57735;56.264;43.898;2023-01-25T09:02:21;102081.00;;;-1.69;67.13
70323;BME280;57735;56.264;43.898;2023-01-25T09:04:51;102087.09;;;-1.68;67.57
70323;BME280;57735;56.264;43.898;2023-01-25T09:07:22;102084.38;;;-1.65;67.45
70323;BME280;57735;56.264;43.898;2023-01-25T09:09:53;102086.97;;;-1.64;67.13
70323;BME280;57735;56.264;43.898;2023-01-25T09:12:24;102077.59;;;-1.72;67.27
70323;BME280;57735;56.264;43.898;2023-01-25T09:14:55;102079.47;;;-1.79;67.35
70323;BME280;57735;56.264;43.898;2023-01-25T09:17:25;102079.63;;;-1.85;67.71
70323;BME280;57735;56.264;43.898;2023-01-25T09:19:56;102078.94;;;-1.95;67.91
70323;BME280;57735;56.264;43.898;2023-01-25T09:22:27;102072.81;;;-1.94;67.99
70323;BME280;57735;56.264;43.898;2023-01-25T09:24:58;102068.47;;;-1.93;68.16
70323;BME280;57735;56.264;43.898;2023-01-25T09:27:29;102064.97;;;-1.92;68.06
70323;BME280;57735;56.264;43.898;2023-01-25T09:29:59;102066.66;;;-1.90;68.25
70323;BME280;57735;56.264;43.898;2023-01-25T09:32:30;102065.03;;;-1.95;68.20
70323;BME280;57735;56.264;43.898;2023-01-25T09:35:01;102059.75;;;-1.94;68.44
70323;BME280;57735;56.264;43.898;2023-01-25T09:37:34;102058.75;;;-1.87;67.95
70323;BME280;57735;56.264;43.898;2023-01-25T09:40:08;102055.97;;;-1.81;67.79
70323;BME280;57735;56.264;43.898;2023-01-25T09:42:59;102044.72;;;-1.84;68.25
70323;BME280;57735;56.264;43.898;2023-01-25T09:45:33;102041.13;;;-1.79;68.19
70323;BME280;57735;56.264;43.898;2023-01-25T09:48:17;102044.34;;;-1.67;68.03
70323;BME280;57735;56.264;43.898;2023-01-25T09:51:01;102042.50;;;-1.62;68.04
70323;BME280;57735;56.264;43.898;2023-01-25T09:54:01;102033.13;;;-1.71;67.95
70323;BME280;57735;56.264;43.898;2023-01-25T09:56:35;102039.34;;;-1.77;68.00
70323;BME280;57735;56.264;43.898;2023-01-25T09:59:12;102031.41;;;-1.72;68.46
70323;BME280;57735;56.264;43.898;2023-01-25T10:01:56;102023.34;;;-1.63;67.94
70323;BME280;57735;56.264;43.898;2023-01-25T10:04:41;102019.00;;;-1.64;68.09
70323;BME280;57735;56.264;43.898;2023-01-25T10:07:19;102021.50;;;-1.58;68.25
70323;BME280;57735;56.264;43.898;2023-01-25T10:10:10;102030.88;;;-1.51;67.72
70323;BME280;57735;56.264;43.898;2023-01-25T10:12:44;102028.06;;;-1.42;67.76
70323;BME280;57735;56.264;43.898;2023-01-25T10:15:22;102027.28;;;-1.45;67.36
70323;BME280;57735;56.264;43.898;2023-01-25T10:18:26;102024.91;;;-1.54;67.78
70323;BME280;57735;56.264;43.898;2023-01-25T10:21:00;102017.91;;;-1.54;68.03
70323;BME280;57735;56.264;43.898;2023-01-25T10:23:50;102021.38;;;-1.53;67.93
70323;BME280;57735;56.264;43.898;2023-01-25T10:26:27;102026.63;;;-1.53;67.80
70323;BME280;57735;56.264;43.898;2023-01-25T10:29:18;102013.66;;;-1.58;68.13
70323;BME280;57735;56.264;43.898;2023-01-25T10:31:54;102005.13;;;-1.67;68.00
70323;BME280;57735;56.264;43.898;2023-01-25T10:34:38;102002.69;;;-1.73;68.11
70323;BME280;57735;56.264;43.898;2023-01-25T10:37:15;101996.50;;;-1.69;68.33
70323;BME280;57735;56.264;43.898;2023-01-25T10:42:40;101998.84;;;-1.59;68.28
70323;BME280;57735;56.264;43.898;2023-01-25T10:45:14;101984.84;;;-1.56;68.12
70323;BME280;57735;56.264;43.898;2023-01-25T10:47:48;101982.19;;;-1.55;68.02
70323;BME280;57735;56.264;43.898;2023-01-25T10:50:51;101982.88;;;-1.48;68.01
70323;BME280;57735;56.264;43.898;2023-01-25T10:53:34;101974.31;;;-1.53;68.12
70323;BME280;57735;56.264;43.898;2023-01-25T10:56:22;101970.00;;;-1.54;68.25
70323;BME280;57735;56.264;43.898;2023-01-25T10:59:07;101977.03;;;-1.58;68.03
70323;BME280;57735;56.264;43.898;2023-01-25T11:01:43;101970.22;;;-1.65;68.09
70323;BME280;57735;56.264;43.898;2023-01-25T11:04:34;101965.25;;;-1.74;68.79
70323;BME280;57735;56.264;43.898;2023-01-25T11:07:25;101953.81;;;-1.70;69.11
70323;BME280;57735;56.264;43.898;2023-01-25T11:09:56;101953.81;;;-1.70;69.00
70323;BME280;57735;56.264;43.898;2023-01-25T11:12:27;101954.66;;;-1.68;69.09
70323;BME280;57735;56.264;43.898;2023-01-25T11:15:23;101958.91;;;-1.65;69.28
70323;BME280;57735;56.264;43.898;2023-01-25T11:18:05;101957.19;;;-1.66;69.07
70323;BME280;57735;56.264;43.898;2023-01-25T11:20:36;101961.63;;;-1.68;68.95
70323;BME280;57735;56.264;43.898;2023-01-25T11:23:25;101956.50;;;-1.73;69.27
70323;BME280;57735;56.264;43.898;2023-01-25T11:28:45;101947.94;;;-1.80;69.69
70323;BME280;57735;56.264;43.898;2023-01-25T11:31:20;101950.44;;;-1.75;69.56
70323;BME280;57735;56.264;43.898;2023-01-25T11:33:53;101944.34;;;-1.76;69.52
70323;BME280;57735;56.264;43.898;2023-01-25T12:05:31;101914.72;;;-1.74;69.69
70323;BME280;57735;56.264;43.898;2023-01-25T12:22:54;101909.03;;;-1.92;70.37
70323;BME280;57735;56.264;43.898;2023-01-25T12:28:16;101897.69;;;-1.91;70.43
70323;BME280;57735;56.264;43.898;2023-01-25T12:33:37;101883.72;;;-1.90;70.53
70323;BME280;57735;56.264;43.898;2023-01-25T12:36:33;101885.53;;;-1.92;70.35
70323;BME280;57735;56.264;43.898;2023-01-25T12:42:04;101871.66;;;-1.95;70.39
70323;BME280;57735;56.264;43.898;2023-01-25T12:44:59;101864.72;;;-1.96;70.62
70323;BME280;57735;56.264;43.898;2023-01-25T12:47:48;101863.88;;;-1.97;70.31
70323;BME280;57735;56.264;43.898;2023-01-25T12:50:38;101849.97;;;-1.99;70.73
70323;BME280;57735;56.264;43.898;2023-01-25T12:53:22;101847.34;;;-1.99;70.79
70323;BME280;57735;56.264;43.898;2023-01-25T12:55:56;101846.47;;;-1.98;70.66
70323;BME280;57735;56.264;43.898;2023-01-25T12:58:42;101838.66;;;-1.99;71.06
70323;BME280;57735;56.264;43.898;2023-01-25T13:01:26;101838.75;;;-2.02;70.94
70323;BME280;57735;56.264;43.898;2023-01-25T13:04:13;101836.09;;;-2.01;70.87
70323;BME280;57735;56.264;43.898;2023-01-25T13:07:00;101830.84;;;-2.01;70.92
70323;BME280;57735;56.264;43.898;2023-01-25T13:12:11;101823.09;;;-2.02;71.21
70323;BME280;57735;56.264;43.898;2023-01-25T13:14:42;101820.41;;;-2.01;71.08
70323;BME280;57735;56.264;43.898;2023-01-25T13:17:29;101817.75;;;-1.99;71.23
70323;BME280;57735;56.264;43.898;2023-01-25T13:23:31;101805.66;;;-2.02;71.61
70323;BME280;57735;56.264;43.898;2023-01-25T13:28:54;101815.19;;;-2.01;71.40
70323;BME280;57735;56.264;43.898;2023-01-25T13:34:11;101804.84;;;-2.04;71.67
70323;BME280;57735;56.264;43.898;2023-01-25T13:42:01;101804.22;;;-2.15;71.98
70323;BME280;57735;56.264;43.898;2023-01-25T13:44:35;101803.38;;;-2.16;71.94
70323;BME280;57735;56.264;43.898;2023-01-25T13:47:13;101806.22;;;-2.25;72.00
70323;BME280;57735;56.264;43.898;2023-01-25T13:52:30;101816.88;;;-2.34;72.07
70323;BME280;57735;56.264;43.898;2023-01-25T13:55:14;101807.38;;;-2.36;72.12
70323;BME280;57735;56.264;43.898;2023-01-25T13:57:46;101802.16;;;-2.36;72.34
70323;BME280;57735;56.264;43.898;2023-01-25T14:00:17;101795.13;;;-2.34;72.45
70323;BME280;57735;56.264;43.898;2023-01-25T14:02:53;101802.06;;;-2.33;72.66
70323;BME280;57735;56.264;43.898;2023-01-25T14:05:24;101800.34;;;-2.34;72.29
70323;BME280;57735;56.264;43.898;2023-01-25T14:07:59;101806.59;;;-2.40;72.28
70323;BME280;57735;56.264;43.898;2023-01-25T14:10:30;101800.56;;;-2.43;72.60
70323;BME280;57735;56.264;43.898;2023-01-25T14:13:03;101811.88;;;-2.43;72.41
70323;BME280;57735;56.264;43.898;2023-01-25T14:15:34;101821.53;;;-2.47;72.34
70323;BME280;57735;56.264;43.898;2023-01-25T14:18:18;101813.66;;;-2.45;72.59
70323;BME280;57735;56.264;43.898;2023-01-25T14:20:50;101815.38;;;-2.44;72.67
70323;BME280;57735;56.264;43.898;2023-01-25T14:23:28;101810.22;;;-2.47;72.50
70323;BME280;57735;56.264;43.898;2023-01-25T14:25:59;101805.38;;;-2.62;72.41
70323;BME280;57735;56.264;43.898;2023-01-25T14:28:31;101796.78;;;-2.67;72.44
70323;BME280;57735;56.264;43.898;2023-01-25T14:31:02;101794.16;;;-2.67;73.05
70323;BME280;57735;56.264;43.898;2023-01-25T14:33:35;101796.78;;;-2.67;72.63
70323;BME280;57735;56.264;43.898;2023-01-25T14:36:12;101795.84;;;-2.65;72.81
70323;BME280;57735;56.264;43.898;2023-01-25T14:38:48;101801.19;;;-2.69;72.48
70323;BME280;57735;56.264;43.898;2023-01-25T14:43:58;101795.91;;;-2.68;72.41
70323;BME280;57735;56.264;43.898;2023-01-25T14:46:31;101802.91;;;-2.68;72.41